Time;durP1;ratioP1;P1;durP2;ratioP2;P2;SDS_P1;SDS_P2;PMS_P1;PMS_P2;Temp;Humidity;BMP_temperature;BMP_pressure;BME280_temperature;BME280_humidity;BME280_pressure;Samples;Min_cycle;Max_cycle;Signal;HPM_P1;HPM_P2
2022/04/14 00:00:10;;;;;;;8.17;6.30;;;18.40;99.90;;;;;;4938976;29;20435;-73
2022/04/14 00:02:36;;;;;;;8.23;6.83;;;18.40;99.90;;;;;;4954741;29;20427;-73
2022/04/14 00:05:03;;;;;;;9.30;6.87;;;18.40;99.90;;;;;;4938398;29;20899;-73
2022/04/14 00:07:28;;;;;;;8.90;6.87;;;18.40;99.90;;;;;;4955421;28;20521;-73
2022/04/14 00:09:54;;;;;;;7.70;6.40;;;18.30;99.90;;;;;;4954202;29;20424;-73
2022/04/14 00:12:20;;;;;;;13.87;7.43;;;18.30;99.90;;;;;;4955077;29;20175;-72
2022/04/14 00:14:49;;;;;;;9.07;6.97;;;18.30;99.90;;;;;;4937134;29;20504;-73
2022/04/14 00:17:15;;;;;;;7.30;5.43;;;18.30;99.90;;;;;;4938448;29;20451;-73
2022/04/14 00:19:43;;;;;;;10.20;7.07;;;18.30;99.90;;;;;;4954254;28;20474;-73
2022/04/14 00:22:09;;;;;;;11.23;7.83;;;18.30;99.90;;;;;;4937535;29;20512;-73
2022/04/14 00:24:38;;;;;;;8.20;7.00;;;18.30;99.90;;;;;;4954016;29;20450;-72
2022/04/14 00:27:04;;;;;;;8.77;6.40;;;18.30;99.90;;;;;;4953667;29;20656;-73
2022/04/14 00:29:35;;;;;;;9.20;8.20;;;18.30;99.90;;;;;;4938286;29;20462;-73
2022/04/14 00:32:01;;;;;;;10.20;8.10;;;18.30;99.90;;;;;;4954799;28;20496;-73
2022/04/14 00:34:27;;;;;;;8.73;6.60;;;18.20;99.90;;;;;;4954950;28;20479;-73
2022/04/14 00:36:52;;;;;;;8.10;6.87;;;18.20;99.90;;;;;;4934808;29;20477;-73
2022/04/14 00:39:18;;;;;;;8.33;7.17;;;18.20;99.90;;;;;;4918784;29;20439;-73
2022/04/14 00:41:47;;;;;;;9.43;7.73;;;18.20;99.90;;;;;;4953078;29;20502;-73
2022/04/14 00:44:13;;;;;;;7.57;6.80;;;18.20;99.90;;;;;;4953694;29;20959;-73
2022/04/14 00:46:41;;;;;;;8.90;6.60;;;18.20;99.90;;;;;;4937606;29;20470;-73
2022/04/14 00:49:10;;;;;;;9.00;8.00;;;18.20;99.90;;;;;;4953803;29;20421;-73
2022/04/14 00:51:36;;;;;;;9.60;7.60;;;18.20;99.90;;;;;;4953246;29;20835;-73
2022/04/14 00:54:04;;;;;;;9.00;7.50;;;18.20;99.90;;;;;;4953315;29;20437;-72
2022/04/14 00:56:36;;;;;;;9.77;8.17;;;18.20;99.90;;;;;;4953559;29;20970;-72
2022/04/14 00:59:02;;;;;;;11.37;8.80;;;18.10;99.90;;;;;;4954591;28;20477;-72
2022/04/14 01:01:30;;;;;;;8.13;6.70;;;18.10;99.90;;;;;;4937578;29;20429;-73
2022/04/14 01:03:58;;;;;;;8.07;6.37;;;18.10;99.90;;;;;;4953524;29;20450;-72
2022/04/14 01:06:25;;;;;;;8.50;6.77;;;18.10;99.90;;;;;;4936741;29;20839;-73
2022/04/14 01:11:40;;;;;;;10.10;7.70;;;18.10;99.90;;;;;;4954261;28;20425;-73
2022/04/14 01:14:06;;;;;;;10.33;7.90;;;18.10;99.90;;;;;;4934269;29;20443;-73
2022/04/14 01:16:35;;;;;;;6.80;6.03;;;18.10;99.90;;;;;;4953623;29;20469;-75
2022/04/14 01:19:01;;;;;;;10.67;7.70;;;18.10;99.90;;;;;;4952734;29;20905;-73
2022/04/14 01:21:33;;;;;;;11.90;7.80;;;18.10;99.90;;;;;;4953034;29;20218;-73
2022/04/14 01:24:02;;;;;;;9.13;7.70;;;18.00;99.90;;;;;;4953143;29;20896;-73
2022/04/14 01:26:28;;;;;;;8.80;7.00;;;18.00;99.90;;;;;;4952823;29;20469;-74
2022/04/14 01:29:00;;;;;;;10.33;7.00;;;18.00;99.90;;;;;;4953811;28;20546;-72
2022/04/14 01:31:29;;;;;;;7.43;6.73;;;18.00;99.90;;;;;;4952667;29;20406;-75
2022/04/14 01:33:57;;;;;;;12.40;7.10;;;18.00;99.90;;;;;;4952850;28;20546;-73
2022/04/14 01:36:23;;;;;;;7.17;5.87;;;18.00;99.90;;;;;;4936877;29;20456;-73
2022/04/14 01:38:49;;;;;;;7.33;6.23;;;18.00;99.90;;;;;;4953082;29;20406;-73
2022/04/14 01:41:20;;;;;;;11.17;8.03;;;18.00;99.90;;;;;;4952291;29;20433;-73
2022/04/14 01:43:48;;;;;;;8.20;7.10;;;18.00;99.90;;;;;;4937033;29;20438;-75
2022/04/14 01:46:14;;;;;;;7.60;6.23;;;17.90;99.90;;;;;;4952206;29;20822;-73
2022/04/14 01:48:42;;;;;;;9.53;7.73;;;17.90;99.90;;;;;;4954099;28;20485;-73
2022/04/14 01:51:08;;;;;;;9.13;7.43;;;17.90;99.90;;;;;;4952607;29;20442;-74
2022/04/14 01:53:37;;;;;;;7.27;6.27;;;17.90;99.90;;;;;;4953143;29;20422;-73
2022/04/14 01:56:05;;;;;;;10.37;7.33;;;17.90;99.90;;;;;;4936996;29;20482;-72
2022/04/14 01:58:31;;;;;;;6.77;5.60;;;17.90;99.90;;;;;;4952478;29;20452;-73
2022/04/14 02:00:59;;;;;;;8.23;6.97;;;17.90;99.90;;;;;;4953349;29;20508;-72
2022/04/14 02:03:25;;;;;;;8.80;6.70;;;17.90;99.90;;;;;;4952565;29;20437;-73
2022/04/14 02:05:54;;;;;;;8.20;6.70;;;17.80;99.90;;;;;;4952393;29;20462;-72
2022/04/14 02:08:21;;;;;;;9.80;6.70;;;17.80;99.90;;;;;;4953294;28;20457;-73
2022/04/14 02:10:47;;;;;;;9.10;7.40;;;17.80;99.90;;;;;;4952423;29;20713;-73
2022/04/14 02:13:12;;;;;;;9.90;7.17;;;17.80;99.90;;;;;;4950761;29;20533;-73
2022/04/14 02:15:39;;;;;;;9.83;7.37;;;17.80;99.90;;;;;;4953434;28;20505;-73
2022/04/14 02:18:10;;;;;;;11.73;7.83;;;17.80;99.90;;;;;;4953329;28;20465;-73
2022/04/14 02:20:38;;;;;;;10.00;6.50;;;17.80;99.90;;;;;;4956383;29;20411;-74
2022/04/14 02:23:07;;;;;;;9.73;7.43;;;17.80;99.90;;;;;;4957390;28;20465;-73
2022/04/14 02:25:39;;;;;;;7.87;6.83;;;17.80;99.90;;;;;;4956086;29;20994;-73
2022/04/14 02:28:06;;;;;;;9.83;6.90;;;17.70;99.90;;;;;;4957256;29;20454;-73
2022/04/14 02:30:33;;;;;;;8.87;7.80;;;17.70;99.90;;;;;;4957432;28;20426;-73
2022/04/14 02:33:00;;;;;;;9.70;7.40;;;17.70;99.90;;;;;;4956222;29;20422;-73
2022/04/14 02:35:28;;;;;;;8.13;6.53;;;17.70;99.90;;;;;;4940422;29;20449;-73
2022/04/14 02:37:57;;;;;;;11.37;7.30;;;17.70;99.90;;;;;;4939398;29;20957;-73
2022/04/14 02:40:26;;;;;;;9.33;7.20;;;17.70;99.90;;;;;;4974178;28;20472;-73
2022/04/14 02:42:54;;;;;;;11.70;7.90;;;17.70;99.90;;;;;;4976372;28;20396;-73
2022/04/14 02:45:21;;;;;;;8.47;7.30;;;17.70;99.90;;;;;;4936985;29;20419;-72
2022/04/14 02:47:50;;;;;;;7.73;6.93;;;17.70;99.90;;;;;;4949640;29;20453;-72
2022/04/14 02:50:19;;;;;;;7.53;6.77;;;17.70;99.90;;;;;;4956574;28;20422;-73
2022/04/14 02:52:48;;;;;;;9.60;7.33;;;17.70;99.90;;;;;;4955713;29;20424;-72
2022/04/14 02:55:14;;;;;;;9.50;7.07;;;17.60;99.90;;;;;;4939959;29;20806;-72
2022/04/14 02:57:41;;;;;;;12.90;7.50;;;17.60;99.90;;;;;;4939861;29;20541;-73
2022/04/14 03:00:10;;;;;;;7.33;6.60;;;17.60;99.90;;;;;;4956896;28;20789;-72
2022/04/14 03:02:39;;;;;;;7.23;6.40;;;17.60;99.90;;;;;;4955387;29;20790;-72
2022/04/14 03:05:07;;;;;;;9.50;7.70;;;17.60;99.90;;;;;;4955233;29;20529;-73
2022/04/14 03:07:36;;;;;;;8.60;7.60;;;17.60;99.90;;;;;;4955222;29;20475;-73
2022/04/14 03:10:05;;;;;;;10.37;7.40;;;17.60;99.90;;;;;;4956787;28;20422;-73
2022/04/14 03:12:43;;;;;;;8.83;7.03;;;17.60;99.90;;;;;;4936126;29;20468;-73
2022/04/14 03:15:12;;;;;;;8.90;8.00;;;17.60;99.90;;;;;;4955201;29;20417;-73
2022/04/14 03:17:40;;;;;;;8.97;7.33;;;17.50;99.90;;;;;;4939365;29;20823;-75
2022/04/14 03:20:07;;;;;;;8.67;7.70;;;17.50;99.90;;;;;;4939329;29;20765;-73
2022/04/14 03:22:34;;;;;;;9.67;6.83;;;17.50;99.90;;;;;;4939357;29;20465;-73
2022/04/14 03:25:09;;;;;;;8.43;6.93;;;17.50;99.90;;;;;;4955387;28;20438;-73
2022/04/14 03:27:37;;;;;;;8.90;8.00;;;17.50;99.90;;;;;;4938808;29;20531;-73
2022/04/14 03:30:04;;;;;;;11.20;7.97;;;17.50;99.90;;;;;;4953743;28;20465;-73
2022/04/14 03:32:38;;;;;;;8.80;7.30;;;17.50;99.90;;;;;;4954729;29;20429;-73
2022/04/14 03:35:07;;;;;;;11.27;8.03;;;17.50;99.90;;;;;;4956022;29;20437;-73
2022/04/14 03:37:33;;;;;;;10.63;7.93;;;17.50;99.90;;;;;;4939153;29;20464;-73
2022/04/14 03:40:04;;;;;;;9.17;7.87;;;17.50;99.90;;;;;;4954931;29;20449;-74
2022/04/14 03:42:30;;;;;;;8.47;7.50;;;17.40;99.90;;;;;;4954556;29;20824;-73
2022/04/14 03:44:58;;;;;;;8.97;7.83;;;17.40;99.90;;;;;;4954822;29;20406;-75
2022/04/14 03:47:25;;;;;;;9.90;7.97;;;17.40;99.90;;;;;;4954666;29;20473;-73
2022/04/14 03:49:56;;;;;;;8.40;7.40;;;17.40;99.90;;;;;;4954485;29;20501;-73
2022/04/14 03:52:23;;;;;;;8.83;7.60;;;17.40;99.90;;;;;;4955897;28;20428;-72
2022/04/14 03:54:54;;;;;;;10.43;8.80;;;17.40;99.90;;;;;;4955793;28;20999;-73
2022/04/14 03:57:20;;;;;;;10.03;7.83;;;17.40;99.90;;;;;;4938821;29;20453;-73
2022/04/14 03:59:49;;;;;;;12.33;7.87;;;17.40;99.90;;;;;;4955278;28;20428;-72
2022/04/14 04:02:17;;;;;;;8.40;7.00;;;17.40;99.90;;;;;;4955743;28;20405;-72
2022/04/14 04:04:45;;;;;;;9.13;8.10;;;17.40;99.90;;;;;;4954602;29;20425;-72
2022/04/14 04:07:16;;;;;;;9.10;7.60;;;17.30;99.90;;;;;;4938573;29;20937;-73
2022/04/14 04:09:46;;;;;;;9.50;7.40;;;17.30;99.90;;;;;;4954563;29;20417;-73
2022/04/14 04:12:14;;;;;;;7.30;6.57;;;17.30;99.90;;;;;;4953442;29;20414;-73
2022/04/14 04:14:41;;;;;;;9.30;7.87;;;17.30;99.90;;;;;;4955539;28;21125;-73
2022/04/14 04:17:07;;;;;;;11.20;8.47;;;17.30;99.90;;;;;;4955305;28;20476;-73
2022/04/14 04:19:38;;;;;;;9.97;7.53;;;17.30;99.90;;;;;;4954549;29;20468;-73
2022/04/14 04:22:09;;;;;;;10.47;7.90;;;17.30;99.90;;;;;;4955052;29;20433;-73
2022/04/14 04:24:35;;;;;;;10.23;8.47;;;17.30;99.90;;;;;;4954487;28;20448;-73
2022/04/14 04:27:01;;;;;;;9.40;8.00;;;17.30;99.90;;;;;;4953950;29;20480;-73
2022/04/14 04:29:27;;;;;;;10.40;8.70;;;17.20;99.90;;;;;;4955486;28;20408;-75
2022/04/14 04:31:53;;;;;;;9.20;8.10;;;17.20;99.90;;;;;;4955209;28;21057;-73
2022/04/14 04:34:19;;;;;;;10.10;8.27;;;17.20;99.90;;;;;;4938406;29;20512;-74
2022/04/14 04:36:50;;;;;;;9.50;7.77;;;17.20;99.90;;;;;;4953545;29;20462;-73
2022/04/14 04:39:18;;;;;;;10.63;7.87;;;17.20;99.90;;;;;;4954007;29;20410;-73
2022/04/14 04:41:46;;;;;;;10.53;9.43;;;17.20;99.90;;;;;;4954420;28;20452;-73
2022/04/14 04:44:14;;;;;;;12.97;8.37;;;17.20;99.90;;;;;;4954825;29;20466;-74
2022/04/14 04:46:40;;;;;;;10.07;8.30;;;17.20;99.90;;;;;;4937479;29;20505;-73
2022/04/14 04:49:08;;;;;;;11.50;9.40;;;17.20;99.90;;;;;;4953664;29;20453;-73
2022/04/14 04:51:36;;;;;;;9.90;8.57;;;17.20;99.90;;;;;;4952589;29;20818;-73
2022/04/14 04:54:04;;;;;;;10.90;8.23;;;17.10;99.90;;;;;;4952784;29;20460;-73
2022/04/14 04:56:30;;;;;;;9.70;7.50;;;17.10;99.90;;;;;;4953391;28;20454;-72
2022/04/14 04:58:59;;;;;;;10.27;8.87;;;17.10;99.90;;;;;;4954099;28;20426;-72
2022/04/14 05:01:32;;;;;;;11.97;9.77;;;17.10;99.90;;;;;;4954674;29;20956;-72
2022/04/14 05:04:00;;;;;;;9.67;8.43;;;17.10;99.90;;;;;;4953426;28;20531;-73
2022/04/14 05:06:31;;;;;;;10.63;8.33;;;17.10;99.90;;;;;;4953152;29;20473;-72
2022/04/14 05:08:59;;;;;;;10.90;8.50;;;17.10;99.90;;;;;;4953367;29;20417;-72
2022/04/14 05:11:28;;;;;;;13.20;9.90;;;17.10;99.90;;;;;;4936976;29;20442;-72
2022/04/14 05:13:54;;;;;;;12.10;10.07;;;17.10;99.90;;;;;;4953172;29;20217;-72
2022/04/14 05:16:22;;;;;;;11.13;9.07;;;17.00;99.90;;;;;;4954282;28;20442;-73
2022/04/14 05:18:56;;;;;;;13.37;9.97;;;17.00;99.90;;;;;;4953220;28;20433;-72
2022/04/14 05:21:26;;;;;;;11.40;10.20;;;17.00;99.90;;;;;;4952766;29;20964;-72
2022/04/14 05:23:52;;;;;;;11.63;9.93;;;17.00;99.90;;;;;;4937105;29;20969;-73
2022/04/14 05:26:21;;;;;;;11.77;9.30;;;17.00;99.90;;;;;;4952801;29;20468;-73
2022/04/14 05:28:46;;;;;;;10.40;8.87;;;17.00;99.90;;;;;;4952956;29;20409;-73
2022/04/14 05:31:15;;;;;;;11.20;9.47;;;17.00;99.90;;;;;;4952677;29;20451;-73
2022/04/14 05:33:41;;;;;;;9.33;8.13;;;17.00;99.90;;;;;;4954088;29;20694;-73
2022/04/14 05:36:09;;;;;;;11.70;9.30;;;17.00;99.90;;;;;;4936818;29;20455;-72
2022/04/14 05:38:37;;;;;;;12.43;10.10;;;17.00;99.90;;;;;;4952937;29;20791;-72
2022/04/14 05:41:03;;;;;;;10.70;9.47;;;16.90;99.90;;;;;;4936931;29;20564;-72
2022/04/14 05:43:34;;;;;;;11.77;9.20;;;16.90;99.90;;;;;;4936738;29;20178;-73
2022/04/14 05:46:03;;;;;;;11.93;9.20;;;16.90;99.90;;;;;;4952638;28;20496;-73
2022/04/14 05:48:29;;;;;;;12.00;10.07;;;16.90;99.90;;;;;;4953708;28;20437;-73
2022/04/14 05:51:02;;;;;;;11.00;9.53;;;16.90;99.90;;;;;;4952608;29;20458;-73
2022/04/14 05:53:28;;;;;;;11.33;9.90;;;16.90;99.90;;;;;;4952487;28;20461;-73
2022/04/14 05:55:57;;;;;;;11.50;9.40;;;16.90;99.90;;;;;;4952300;29;20908;-73
2022/04/14 05:58:25;;;;;;;12.03;9.50;;;16.90;99.90;;;;;;4936462;29;20963;-73
2022/04/14 06:00:57;;;;;;;11.57;8.93;;;16.90;99.90;;;;;;4952550;29;20421;-73
2022/04/14 06:03:25;;;;;;;10.33;8.67;;;16.90;99.90;;;;;;4952360;29;20453;-73
2022/04/14 06:05:53;;;;;;;13.50;9.77;;;16.90;99.90;;;;;;4952348;29;20480;-73
2022/04/14 06:08:20;;;;;;;11.57;9.67;;;16.90;99.90;;;;;;4951733;29;20443;-73
2022/04/14 06:10:48;;;;;;;11.80;9.33;;;16.80;99.90;;;;;;4953143;28;20420;-73
2022/04/14 06:13:16;;;;;;;11.90;9.23;;;16.80;99.90;;;;;;4952316;29;20417;-73
2022/04/14 06:15:43;;;;;;;10.70;9.60;;;16.80;99.90;;;;;;4936436;29;20530;-73
2022/04/14 06:18:09;;;;;;;11.00;9.60;;;16.80;99.90;;;;;;4953760;28;20206;-73
2022/04/14 06:20:37;;;;;;;11.57;9.57;;;16.80;99.90;;;;;;4952807;28;20410;-74
2022/04/14 06:23:05;;;;;;;11.70;9.37;;;16.80;99.90;;;;;;4936083;29;20433;-73
2022/04/14 06:25:34;;;;;;;10.23;9.13;;;16.80;99.90;;;;;;4952041;29;20480;-72
2022/04/14 06:28:00;;;;;;;10.13;9.03;;;16.80;99.90;;;;;;4953316;28;20452;-72
2022/04/14 06:30:26;;;;;;;10.13;8.83;;;16.80;99.90;;;;;;4952109;29;20416;-73
2022/04/14 06:33:03;;;;;;;11.70;9.67;;;16.80;99.90;;;;;;4952139;29;20849;-72
2022/04/14 06:35:34;;;;;;;11.03;9.73;;;16.80;99.90;;;;;;4936179;29;20430;-73
2022/04/14 06:38:00;;;;;;;16.03;10.57;;;16.80;99.90;;;;;;4951991;29;20437;-72
2022/04/14 06:40:28;;;;;;;14.10;10.30;;;16.80;99.90;;;;;;4951991;28;20498;-73
2022/04/14 06:42:54;;;;;;;14.50;11.30;;;16.80;99.90;;;;;;4952238;28;20788;-73
2022/04/14 06:45:23;;;;;;;11.33;9.80;;;16.70;99.90;;;;;;4951965;29;20405;-73
2022/04/14 06:47:53;;;;;;;9.83;8.67;;;16.70;99.90;;;;;;4936155;29;20212;-74
2022/04/14 06:50:21;;;;;;;11.80;9.77;;;16.70;99.90;;;;;;4951276;29;20401;-73
2022/04/14 06:52:47;;;;;;;13.13;10.50;;;16.70;99.90;;;;;;4952015;29;20928;-73
2022/04/14 06:55:16;;;;;;;13.13;10.00;;;16.70;99.90;;;;;;4953189;28;20554;-73
2022/04/14 06:57:44;;;;;;;11.80;9.37;;;16.70;99.90;;;;;;4951269;29;20499;-73
2022/04/14 07:00:13;;;;;;;11.10;9.03;;;16.70;99.90;;;;;;4951772;29;20414;-73
2022/04/14 07:02:48;;;;;;;10.60;8.70;;;16.70;99.90;;;;;;4952945;28;20437;-73
2022/04/14 07:05:17;;;;;;;9.20;7.90;;;16.70;99.90;;;;;;4954707;28;20432;-73
2022/04/14 07:07:46;;;;;;;10.90;9.73;;;16.70;99.90;;;;;;4955434;28;20491;-72
2022/04/14 07:10:15;;;;;;;12.50;9.20;;;16.70;99.90;;;;;;4954799;29;20814;-73
2022/04/14 07:12:44;;;;;;;13.80;11.03;;;16.70;99.90;;;;;;4955368;29;20526;-73
2022/04/14 07:15:11;;;;;;;14.43;11.50;;;16.70;99.90;;;;;;4955044;29;20428;-73
2022/04/14 07:17:40;;;;;;;11.57;9.87;;;16.70;99.90;;;;;;4939279;29;20555;-73
2022/04/14 07:20:09;;;;;;;11.97;10.23;;;16.70;99.90;;;;;;4939390;29;20531;-73
2022/04/14 07:22:46;;;;;;;12.70;9.83;;;16.70;99.90;;;;;;4956342;29;20885;-73
2022/04/14 07:25:18;;;;;;;9.77;8.77;;;16.60;99.90;;;;;;4955044;28;20470;-73
2022/04/14 07:27:44;;;;;;;13.97;10.80;;;16.60;99.90;;;;;;4938764;29;20472;-73
2022/04/14 07:30:11;;;;;;;12.50;10.10;;;16.60;99.90;;;;;;4938793;29;20437;-71
2022/04/14 07:32:43;;;;;;;10.00;8.90;;;16.70;99.90;;;;;;4939275;29;20424;-71
2022/04/14 07:35:09;;;;;;;13.80;10.20;;;16.60;99.90;;;;;;4955044;29;20921;-71
2022/04/14 07:37:38;;;;;;;15.33;11.90;;;16.60;99.90;;;;;;4939196;29;20461;-71
2022/04/14 07:40:10;;;;;;;14.23;11.63;;;16.60;99.90;;;;;;4954263;29;20443;-73
2022/04/14 07:42:40;;;;;;;14.30;10.83;;;16.60;99.90;;;;;;4939180;29;20452;-74
2022/04/14 07:45:13;;;;;;;12.40;10.87;;;16.60;99.90;;;;;;4954951;29;20501;-71
2022/04/14 07:47:43;;;;;;;11.70;10.40;;;16.60;99.90;;;;;;4954492;29;20460;-71
2022/04/14 07:50:14;;;;;;;15.97;11.27;;;16.60;99.90;;;;;;4955658;28;20449;-71
2022/04/14 07:52:44;;;;;;;14.13;11.17;;;16.60;99.90;;;;;;4954369;29;20460;-71
2022/04/14 07:55:10;;;;;;;12.63;10.03;;;16.60;99.90;;;;;;4954936;29;20413;-71
2022/04/14 07:57:36;;;;;;;14.87;11.77;;;16.60;99.90;;;;;;4954648;29;20462;-71
2022/04/14 08:00:05;;;;;;;16.83;12.77;;;16.60;99.90;;;;;;4955870;29;20422;-72
2022/04/14 08:02:55;;;;;;;18.10;12.70;;;16.60;99.90;;;;;;4955855;29;20420;-72
2022/04/14 08:05:42;;;;;;;17.47;12.87;;;16.60;99.90;;;;;;4954465;29;20433;-73
2022/04/14 08:08:17;;;;;;;15.87;12.57;;;16.60;99.90;;;;;;4955545;29;20455;-72
2022/04/14 08:10:48;;;;;;;19.63;12.90;;;16.60;99.90;;;;;;4955414;28;20415;-72
2022/04/14 08:13:21;;;;;;;14.00;11.83;;;16.60;99.90;;;;;;4955000;28;20436;-72
2022/04/14 08:15:51;;;;;;;15.43;12.00;;;16.60;99.90;;;;;;4953109;28;20484;-73
2022/04/14 08:18:17;;;;;;;15.10;13.07;;;16.60;99.90;;;;;;4954189;28;20469;-72
2022/04/14 08:20:43;;;;;;;22.80;13.27;;;16.60;99.90;;;;;;4954127;29;20513;-72
2022/04/14 08:23:14;;;;;;;17.00;14.00;;;16.60;99.90;;;;;;4954105;29;20429;-72
2022/04/14 08:25:40;;;;;;;16.27;12.97;;;16.60;99.90;;;;;;4955213;28;20458;-73
2022/04/14 08:28:07;;;;;;;19.60;13.90;;;16.60;99.90;;;;;;4953666;29;20506;-73
2022/04/14 08:30:35;;;;;;;13.53;11.00;;;16.70;99.90;;;;;;4954141;29;20458;-73
2022/04/14 08:33:05;;;;;;;13.30;11.17;;;16.70;99.90;;;;;;4953874;29;20802;-73
2022/04/14 08:35:36;;;;;;;17.20;13.17;;;16.60;99.90;;;;;;4954866;28;20417;-73
2022/04/14 08:38:07;;;;;;;15.63;12.40;;;16.70;99.90;;;;;;4953882;29;20942;-73
2022/04/14 08:40:44;;;;;;;18.00;15.00;;;16.60;99.90;;;;;;4956139;23;20437;31
2022/04/14 08:43:10;;;;;;;20.80;15.00;;;16.60;99.90;;;;;;4908226;29;20488;-72
2022/04/14 08:45:45;;;;;;;18.50;14.40;;;16.70;99.90;;;;;;4916446;29;20456;-70
2022/04/14 08:48:15;;;;;;;17.40;13.60;;;16.70;99.90;;;;;;4900479;29;21023;-70
2022/04/14 08:50:43;;;;;;;22.20;14.90;;;16.70;99.90;;;;;;4896470;29;20431;-72
2022/04/14 08:53:09;;;;;;;21.50;16.27;;;16.70;99.90;;;;;;4896656;29;20428;-72
2022/04/14 08:55:42;;;;;;;20.87;16.40;;;16.80;99.90;;;;;;4896608;29;20453;-72
2022/04/14 08:58:16;;;;;;;22.77;17.70;;;16.80;99.90;;;;;;4896616;29;20455;-72
2022/04/14 09:00:52;;;;;;;26.13;18.97;;;16.80;99.90;;;;;;4896334;29;20881;-73
2022/04/14 09:03:21;;;;;;;27.10;19.50;;;16.80;99.90;;;;;;4881112;29;20416;-73
2022/04/14 09:05:51;;;;;;;23.83;18.87;;;16.80;99.90;;;;;;4880350;29;20461;-73
2022/04/14 09:08:19;;;;;;;25.70;20.63;;;16.80;99.90;;;;;;4896255;29;20440;-73
2022/04/14 09:10:47;;;;;;;28.43;21.80;;;16.90;99.90;;;;;;4880950;29;20782;-73
2022/04/14 09:13:13;;;;;;;34.17;23.97;;;16.90;99.90;;;;;;4896086;29;20475;-73
2022/04/14 09:15:40;;;;;;;31.50;22.90;;;16.90;99.90;;;;;;4896320;29;20507;-73
2022/04/14 09:18:09;;;;;;;34.70;24.30;;;16.90;99.90;;;;;;4896848;29;20456;-73
2022/04/14 09:20:41;;;;;;;35.37;25.10;;;16.90;99.90;;;;;;4896988;29;20437;-73
2022/04/14 09:23:21;;;;;;;30.20;22.47;;;17.00;99.90;;;;;;4896286;29;20425;-73
2022/04/14 09:26:06;;;;;;;31.97;24.23;;;17.00;99.90;;;;;;4897097;29;20477;-73
2022/04/14 09:28:33;;;;;;;37.63;23.13;;;17.00;99.90;;;;;;4896115;29;20965;-73
2022/04/14 09:31:09;;;;;;;30.73;22.53;;;17.00;99.90;;;;;;4896799;29;20415;-73
2022/04/14 09:33:44;;;;;;;38.70;25.67;;;17.10;99.90;;;;;;4897122;29;20431;-72
2022/04/14 09:36:16;;;;;;;33.87;24.00;;;17.10;99.90;;;;;;4880598;29;20791;-72
2022/04/14 09:38:58;;;;;;;30.23;23.17;;;17.10;99.90;;;;;;4897092;29;20438;-72
2022/04/14 09:41:30;;;;;;;35.00;24.27;;;17.20;99.90;;;;;;4910788;29;20468;-72
2022/04/14 09:43:58;;;;;;;35.07;25.37;;;17.20;99.90;;;;;;4897044;29;20470;-73
2022/04/14 09:46:25;;;;;;;35.83;24.57;;;17.20;99.90;;;;;;4896878;29;20456;-72
2022/04/14 09:49:01;;;;;;;34.03;23.83;;;17.20;99.90;;;;;;4911260;29;20425;-72
2022/04/14 09:51:33;;;;;;;31.70;25.53;;;17.20;99.90;;;;;;4893878;29;20506;-73
2022/04/14 09:54:12;;;;;;;34.53;24.30;;;17.30;99.90;;;;;;4895640;29;20432;-72
2022/04/14 09:56:41;;;;;;;37.43;24.30;;;17.30;99.90;;;;;;4896895;29;20498;-71
2022/04/14 09:59:08;;;;;;;35.37;24.27;;;17.30;99.90;;;;;;4895860;29;20447;-72
2022/04/14 10:01:34;;;;;;;33.03;22.63;;;17.30;99.90;;;;;;4896516;29;20429;-72
2022/04/14 10:04:01;;;;;;;34.73;25.07;;;17.40;99.90;;;;;;4895416;29;20883;-72
2022/04/14 10:06:27;;;;;;;33.47;24.60;;;17.40;99.90;;;;;;4895318;29;21130;-71
2022/04/14 10:08:57;;;;;;;33.80;24.63;;;17.40;99.90;;;;;;4895078;29;20807;-72
2022/04/14 10:11:30;;;;;;;33.33;22.80;;;17.40;99.90;;;;;;4896549;29;20461;-72
2022/04/14 10:14:13;;;;;;;30.63;21.40;;;17.50;99.90;;;;;;4895451;29;20440;-72
2022/04/14 10:16:41;;;;;;;32.30;22.57;;;17.50;99.90;;;;;;4896732;29;20945;-72
2022/04/14 10:19:09;;;;;;;29.40;21.60;;;17.50;99.90;;;;;;4880138;29;20435;-72
2022/04/14 10:21:40;;;;;;;32.47;22.13;;;17.60;99.90;;;;;;4896461;29;20934;-72
2022/04/14 10:24:07;;;;;;;31.70;22.60;;;17.60;99.90;;;;;;4895564;29;20518;-72
2022/04/14 10:26:35;;;;;;;31.40;22.93;;;17.60;99.90;;;;;;4895253;29;20483;-72
2022/04/14 10:29:06;;;;;;;32.43;22.40;;;17.70;99.90;;;;;;4895562;29;20427;-72
2022/04/14 10:31:36;;;;;;;26.73;21.83;;;17.70;99.90;;;;;;4879737;29;21099;-71
2022/04/14 10:34:07;;;;;;;30.20;22.80;;;17.70;99.90;;;;;;4879766;29;21000;-72
2022/04/14 10:36:39;;;;;;;27.20;20.60;;;17.70;99.90;;;;;;4879997;29;20470;-72
2022/04/14 10:39:15;;;;;;;28.67;20.73;;;17.80;99.90;;;;;;4877598;29;20913;-72
2022/04/14 10:41:50;;;;;;;26.63;20.93;;;17.80;99.90;;;;;;4898738;29;20450;-71
2022/04/14 10:44:24;;;;;;;26.37;20.20;;;17.80;99.90;;;;;;4914864;29;20429;-71
2022/04/14 10:46:51;;;;;;;24.03;18.87;;;17.80;99.90;;;;;;4914490;29;20487;-72
2022/04/14 10:49:23;;;;;;;26.93;20.10;;;17.90;99.90;;;;;;4918184;29;20785;-72
2022/04/14 10:51:52;;;;;;;26.20;19.60;;;17.90;99.90;;;;;;4903384;29;20467;-72
2022/04/14 10:54:19;;;;;;;21.57;17.40;;;17.90;99.90;;;;;;4899876;29;20421;-73
2022/04/14 10:56:49;;;;;;;22.60;17.70;;;17.90;99.90;;;;;;4897335;29;20471;-72
2022/04/14 10:59:15;;;;;;;21.67;17.67;;;17.90;99.90;;;;;;4898662;29;20484;-72
2022/04/14 11:01:50;;;;;;;21.27;17.37;;;17.90;99.90;;;;;;4898822;29;20441;-72
2022/04/14 11:04:25;;;;;;;20.80;16.27;;;18.00;99.90;;;;;;4898419;29;20468;-72
2022/04/14 11:06:58;;;;;;;22.70;16.80;;;17.90;99.90;;;;;;4898055;29;20495;-72
2022/04/14 11:09:43;;;;;;;20.57;17.23;;;17.90;99.90;;;;;;4899441;29;20437;-72
2022/04/14 11:12:58;;;;;;;17.37;13.87;;;18.00;99.90;;;;;;4899692;29;20511;-72
2022/04/14 11:15:31;;;;;;;23.37;16.47;;;18.00;99.90;;;;;;4896889;29;20429;-72
2022/04/14 11:18:04;;;;;;;19.53;14.40;;;18.00;99.90;;;;;;4897106;29;20653;-72
2022/04/14 11:20:34;;;;;;;19.80;16.27;;;18.00;99.90;;;;;;4896768;29;20499;-72
2022/04/14 11:23:12;;;;;;;18.67;15.40;;;18.00;99.90;;;;;;4897342;29;20974;-72
2022/04/14 11:25:42;;;;;;;18.20;14.80;;;18.00;99.90;;;;;;4891569;29;20445;-72
2022/04/14 11:28:33;;;;;;;21.33;17.10;;;18.00;99.90;;;;;;4881474;29;20833;-72
2022/04/14 11:31:22;;;;;;;18.00;14.77;;;18.00;99.90;;;;;;4885403;29;20508;-72
2022/04/14 11:33:53;;;;;;;23.83;16.70;;;18.10;99.90;;;;;;4881167;29;20443;-72
2022/04/14 11:36:25;;;;;;;18.13;15.10;;;18.10;99.90;;;;;;4896819;29;20899;-72
2022/04/14 11:39:07;;;;;;;17.90;14.87;;;18.00;99.90;;;;;;4897057;29;20596;-73
2022/04/14 11:41:46;;;;;;;20.03;15.80;;;18.10;99.90;;;;;;4896608;29;20455;-73
2022/04/14 11:44:20;;;;;;;18.40;14.93;;;18.10;99.90;;;;;;4877960;29;20453;-73
2022/04/14 11:46:54;;;;;;;17.17;15.37;;;18.10;99.90;;;;;;4891981;29;20496;-73
2022/04/14 11:49:27;;;;;;;17.00;15.00;;;18.10;99.90;;;;;;4881948;29;20450;-73
2022/04/14 11:51:55;;;;;;;15.73;13.87;;;18.10;99.90;;;;;;4896676;29;20480;-73
2022/04/14 11:54:27;;;;;;;14.27;12.87;;;18.20;99.90;;;;;;4897216;29;20954;-73
2022/04/14 11:56:54;;;;;;;16.93;13.93;;;18.20;99.90;;;;;;4913205;29;20469;-73
2022/04/14 11:59:30;;;;;;;15.10;13.13;;;18.20;99.90;;;;;;4897234;29;20511;-72
2022/04/14 12:02:05;;;;;;;16.27;13.60;;;18.20;99.90;;;;;;4898554;29;20455;-73
2022/04/14 12:04:36;;;;;;;14.30;12.90;;;18.20;99.90;;;;;;4896867;29;20459;-73
2022/04/14 12:07:08;;;;;;;14.40;12.90;;;18.30;99.90;;;;;;4897029;29;20476;-73
2022/04/14 12:09:35;;;;;;;12.93;11.57;;;18.20;99.90;;;;;;4898122;29;20440;-73
2022/04/14 12:12:18;;;;;;;13.53;12.13;;;18.30;99.90;;;;;;4897258;29;20429;-73
2022/04/14 12:14:52;;;;;;;13.50;12.10;;;18.30;99.90;;;;;;4896607;29;20452;-73
2022/04/14 12:17:23;;;;;;;14.80;11.67;;;18.30;99.90;;;;;;4896432;29;20448;-73
2022/04/14 12:20:04;;;;;;;15.00;12.83;;;18.30;99.90;;;;;;4896878;29;20525;-73
2022/04/14 12:22:36;;;;;;;17.40;13.57;;;18.30;99.90;;;;;;4895708;29;20445;-73
2022/04/14 12:25:10;;;;;;;14.23;12.60;;;18.40;99.90;;;;;;4912243;29;20461;-73
2022/04/14 12:27:42;;;;;;;13.00;11.80;;;18.40;99.90;;;;;;4896477;29;20497;-73
2022/04/14 12:30:15;;;;;;;14.33;12.93;;;18.40;99.90;;;;;;4896368;29;20492;-73
2022/04/14 12:32:46;;;;;;;13.37;11.87;;;18.40;99.90;;;;;;4897519;29;20773;-73
2022/04/14 12:35:32;;;;;;;12.27;11.00;;;18.40;99.90;;;;;;4896303;29;20417;-73
2022/04/14 12:38:29;;;;;;;11.13;10.13;;;18.40;99.90;;;;;;4912570;29;20454;-73
2022/04/14 12:41:02;;;;;;;13.63;11.50;;;18.50;99.90;;;;;;4897420;29;20856;-73
2022/04/14 12:43:41;;;;;;;10.93;9.87;;;18.50;99.90;;;;;;4881533;29;20437;-73
2022/04/14 12:46:22;;;;;;;12.43;11.23;;;18.50;99.90;;;;;;4896839;29;20532;-73
2022/04/14 12:49:01;;;;;;;10.50;9.20;;;18.50;99.90;;;;;;4897516;29;20444;-73
2022/04/14 12:51:32;;;;;;;10.20;9.10;;;18.50;99.90;;;;;;4911501;29;20436;-73